createdAt,value
2019-01-23T00:01:39.135Z,54.52
2019-01-23T00:04:27.073Z,54.57
2019-01-23T00:07:15.112Z,54.81
2019-01-23T00:10:02.428Z,55.18
2019-01-23T00:12:49.568Z,55.49
2019-01-23T00:15:36.866Z,55.38
2019-01-23T00:18:24.594Z,55.16
2019-01-23T00:21:12.326Z,54.23
2019-01-23T00:24:00.160Z,54.22
2019-01-23T00:26:47.789Z,54.51
2019-01-23T00:29:35.315Z,54.48
2019-01-23T00:32:22.534Z,54.31
2019-01-23T00:35:10.457Z,54.27
2019-01-23T00:37:58.099Z,54.38
2019-01-23T00:40:45.621Z,54.93
2019-01-23T00:43:33.152Z,55.42
2019-01-23T00:46:21.189Z,55.41
2019-01-23T00:49:08.723Z,55.58
2019-01-23T00:51:56.753Z,55.83
2019-01-23T00:54:44.383Z,56.07
2019-01-23T00:57:31.911Z,56.04
2019-01-23T01:00:27.524Z,57.21
2019-01-23T01:03:15.257Z,57.13
2019-01-23T01:06:02.784Z,56.38
2019-01-23T01:08:50.613Z,56.00
2019-01-23T01:11:38.094Z,55.60
2019-01-23T01:14:25.469Z,55.16
2019-01-23T01:17:13.396Z,55.03
2019-01-23T01:20:00.932Z,55.09
2019-01-23T01:22:48.697Z,54.98
2019-01-23T01:25:35.975Z,54.88
2019-01-23T01:28:24.015Z,54.86
2019-01-23T01:31:11.644Z,55.05
2019-01-23T01:33:59.374Z,55.06
2019-01-23T01:36:46.797Z,55.23
2019-01-23T01:39:34.731Z,55.04
2019-01-23T01:42:22.362Z,54.65
2019-01-23T01:45:11.069Z,54.56
2019-01-23T01:47:58.613Z,54.47
2019-01-23T01:50:46.224Z,54.54
2019-01-23T01:53:34.104Z,54.67
2019-01-23T01:56:22.041Z,54.76
2019-01-23T01:59:09.803Z,54.83
2019-01-23T02:01:57.526Z,54.89
2019-01-23T02:04:45.335Z,54.94
2019-01-23T02:07:32.968Z,55.63
2019-01-23T02:10:21.103Z,55.72
2019-01-23T02:13:08.943Z,57.31
2019-01-23T02:15:56.344Z,57.85
2019-01-23T02:18:43.590Z,57.98
2019-01-23T02:21:31.419Z,57.63
2019-01-23T02:24:19.151Z,57.11
2019-01-23T02:27:07.082Z,56.90
2019-01-23T02:29:54.403Z,56.61
2019-01-23T02:32:41.623Z,56.33
2019-01-23T02:35:29.048Z,56.07
2019-01-23T02:38:16.882Z,55.95
2019-01-23T02:41:04.609Z,55.81
2019-01-23T02:43:52.339Z,55.74
2019-01-23T02:46:39.872Z,55.69
2019-01-23T02:49:26.985Z,55.53
2019-01-23T02:52:14.420Z,55.52
2019-01-23T02:55:01.935Z,55.60
2019-01-23T02:57:49.151Z,55.91
2019-01-23T03:00:37.077Z,57.36
2019-01-23T03:03:24.411Z,57.09
2019-01-23T03:06:12.244Z,56.99
2019-01-23T03:08:59.462Z,57.24
2019-01-23T03:11:47.501Z,58.31
2019-01-23T03:14:35.235Z,60.34
2019-01-23T03:17:22.566Z,60.25
2019-01-23T03:20:12.154Z,60.10
2019-01-23T03:22:59.759Z,59.84
2019-01-23T03:25:46.975Z,59.69
2019-01-23T03:28:34.297Z,59.35
2019-01-23T03:31:22.233Z,59.33
2019-01-23T03:34:10.064Z,59.47
2019-01-23T03:36:57.703Z,59.39
2019-01-23T03:39:45.329Z,59.11
2019-01-23T03:42:32.545Z,60.24
2019-01-23T03:45:20.390Z,59.79
2019-01-23T03:48:08.516Z,59.40
2019-01-23T03:50:56.351Z,59.21
2019-01-23T03:53:44.095Z,59.28
2019-01-23T03:56:31.610Z,58.98
2019-01-23T03:59:18.928Z,58.83
2019-01-23T04:02:07.071Z,58.64
2019-01-23T04:04:54.903Z,58.45
2019-01-23T04:07:42.738Z,58.47
2019-01-23T04:10:30.261Z,58.87
2019-01-23T04:13:17.891Z,59.09
2019-01-23T04:16:05.519Z,59.14
2019-01-23T04:18:53.049Z,59.04
2019-01-23T04:21:40.369Z,59.10
2019-01-23T04:24:27.648Z,58.91
2019-01-23T04:27:15.011Z,58.64
2019-01-23T04:30:02.639Z,58.52
2019-01-23T04:32:50.271Z,58.46
2019-01-23T04:35:37.897Z,58.51
2019-01-23T04:38:25.425Z,58.45
2019-01-23T04:41:13.051Z,58.69
2019-01-23T04:44:00.575Z,59.07
2019-01-23T04:46:48.410Z,59.35
2019-01-23T04:49:36.041Z,59.27
2019-01-23T04:52:28.378Z,59.02
2019-01-23T04:55:15.700Z,58.95
2019-01-23T04:58:03.431Z,59.06
2019-01-23T05:00:50.958Z,59.21
2019-01-23T05:03:38.894Z,59.06
2019-01-23T05:06:28.160Z,59.02
2019-01-23T05:09:15.816Z,58.97
2019-01-23T05:12:03.627Z,58.89
2019-01-23T05:14:50.844Z,58.94
2019-01-23T05:17:38.475Z,58.99
2019-01-23T05:20:26.507Z,59.02
2019-01-23T05:23:13.827Z,59.17
2019-01-23T05:26:01.455Z,59.07
2019-01-23T05:28:49.288Z,59.07
2019-01-23T05:31:36.998Z,59.16
2019-01-23T05:34:24.651Z,59.05
2019-01-23T05:37:12.280Z,59.05
2019-01-23T05:39:59.808Z,59.19
2019-01-23T05:42:47.640Z,59.30
2019-01-23T05:45:35.474Z,59.48
2019-01-23T05:48:22.997Z,59.37
2019-01-23T05:51:10.627Z,59.39
2019-01-23T05:53:57.847Z,59.67
2019-01-23T05:56:45.512Z,60.01
2019-01-23T05:59:33.210Z,59.91
2019-01-23T06:02:20.833Z,60.27
2019-01-23T06:05:10.105Z,60.12
2019-01-23T06:07:57.626Z,60.08
2019-01-23T06:10:45.255Z,59.90
2019-01-23T06:13:32.987Z,59.78
2019-01-23T06:16:20.113Z,59.99
2019-01-23T06:19:09.270Z,60.13
2019-01-23T06:22:05.860Z,59.74
2019-01-23T06:25:22.067Z,60.09
2019-01-23T06:28:15.067Z,60.89
2019-01-23T06:31:08.429Z,61.15
2019-01-23T06:34:15.574Z,62.29
2019-01-23T06:37:25.117Z,62.10
2019-01-23T06:40:34.505Z,62.08
2019-01-23T06:43:55.471Z,62.21
2019-01-23T06:47:06.555Z,62.59
2019-01-23T06:50:17.478Z,61.67
2019-01-23T06:53:26.307Z,61.66
2019-01-23T06:56:38.967Z,61.49
2019-01-23T06:59:44.984Z,61.41
2019-01-23T07:03:02.463Z,61.15
2019-01-23T07:05:52.960Z,61.28
2019-01-23T07:08:40.543Z,61.33
2019-01-23T07:11:28.445Z,61.45
2019-01-23T07:14:16.170Z,61.41
2019-01-23T07:17:03.899Z,61.64
2019-01-23T07:19:51.560Z,61.88
2019-01-23T07:22:39.370Z,62.21
2019-01-23T07:25:27.196Z,62.35
2019-01-23T07:28:14.724Z,61.76
2019-01-23T07:31:02.354Z,61.56
2019-01-23T07:33:49.876Z,61.22
2019-01-23T07:36:37.606Z,61.53
2019-01-23T07:39:26.877Z,61.65
2019-01-23T07:42:14.606Z,61.03
2019-01-23T07:45:02.541Z,60.84
2019-01-23T07:47:50.170Z,60.98
2019-01-23T07:50:37.595Z,61.68
2019-01-23T07:53:25.126Z,62.14
2019-01-23T07:56:12.445Z,62.23
2019-01-23T07:59:00.071Z,61.53
2019-01-23T08:01:47.710Z,60.81
2019-01-23T08:04:35.122Z,60.68
2019-01-23T08:07:22.861Z,60.50
2019-01-23T08:10:13.144Z,60.53
2019-01-23T08:13:00.362Z,60.27
2019-01-23T08:15:48.094Z,60.41
2019-01-23T08:18:35.517Z,60.54
2019-01-23T08:21:24.480Z,60.67
2019-01-23T08:24:12.312Z,60.76
2019-01-23T08:27:06.886Z,60.92
2019-01-23T08:29:49.159Z,61.82
2019-01-23T08:32:37.658Z,61.94
2019-01-23T08:35:25.856Z,62.41
2019-01-23T08:38:13.324Z,62.28
2019-01-23T08:41:00.955Z,62.30
2019-01-23T08:43:48.683Z,62.34
2019-01-23T08:46:36.494Z,62.19
2019-01-23T08:49:23.629Z,61.63
2019-01-23T08:52:11.263Z,60.95
2019-01-23T08:54:59.197Z,61.24
2019-01-23T08:57:47.133Z,61.36
2019-01-23T09:00:34.656Z,61.67
2019-01-23T09:03:21.980Z,61.55
2019-01-23T09:06:10.017Z,60.90
2019-01-23T09:08:57.651Z,61.11
2019-01-23T09:11:45.583Z,61.06
2019-01-23T09:14:33.083Z,60.58
2019-01-23T09:17:20.845Z,61.06
2019-01-23T09:20:11.527Z,61.05
2019-01-23T09:22:59.146Z,61.69
2019-01-23T09:25:49.800Z,61.17
2019-01-23T09:28:35.758Z,60.30
2019-01-23T09:31:28.915Z,60.03
2019-01-23T09:34:22.259Z,59.46
2019-01-23T09:37:21.783Z,59.11
2019-01-23T09:40:18.735Z,58.93
2019-01-23T09:43:09.437Z,58.65
2019-01-23T09:46:20.149Z,58.60
2019-01-23T09:49:09.918Z,58.50
2019-01-23T09:52:24.850Z,58.24
2019-01-23T09:55:35.498Z,58.24
2019-01-23T09:58:26.892Z,58.42
2019-01-23T10:01:26.175Z,57.99
2019-01-23T10:04:17.756Z,58.14
2019-01-23T10:07:05.182Z,57.88
2019-01-23T10:10:04.426Z,57.95
2019-01-23T10:13:10.850Z,57.59
2019-01-23T10:16:02.558Z,57.35
2019-01-23T10:18:56.313Z,57.50
2019-01-23T10:21:47.662Z,57.37
2019-01-23T10:24:40.233Z,56.85
2019-01-23T10:27:57.793Z,56.91
2019-01-23T10:30:47.887Z,57.14
2019-01-23T10:33:47.951Z,57.10
2019-01-23T10:36:37.274Z,57.17
2019-01-23T10:39:26.769Z,56.76
2019-01-23T10:42:16.876Z,57.05
2019-01-23T10:45:08.395Z,57.84
2019-01-23T10:47:56.538Z,58.14
2019-01-23T10:50:45.145Z,58.11
2019-01-23T10:53:32.711Z,57.95
2019-01-23T10:56:23.080Z,57.84
2019-01-23T10:59:10.426Z,58.13
2019-01-23T11:01:57.951Z,57.70
2019-01-23T11:04:45.274Z,57.56
2019-01-23T11:07:33.105Z,57.39
2019-01-23T11:10:22.680Z,57.92
2019-01-23T11:13:09.900Z,57.66
2019-01-23T11:15:57.628Z,57.59
2019-01-23T11:18:45.990Z,57.22
2019-01-23T11:21:35.453Z,57.32
2019-01-23T11:24:22.778Z,57.73
2019-01-23T11:27:10.309Z,57.70
2019-01-23T11:29:57.922Z,56.88
2019-01-23T11:32:46.067Z,56.58
2019-01-23T11:35:33.271Z,57.19
2019-01-23T11:38:20.812Z,57.67
2019-01-23T11:41:09.466Z,57.58
2019-01-23T11:43:57.639Z,57.56
2019-01-23T11:46:45.235Z,57.94
2019-01-23T11:49:33.202Z,57.05
2019-01-23T11:52:21.150Z,57.22
2019-01-23T11:55:10.346Z,56.96
2019-01-23T11:57:57.487Z,56.94
2019-01-23T12:00:46.447Z,56.72
2019-01-23T12:03:34.285Z,56.09
2019-01-23T12:06:22.115Z,56.46
2019-01-23T12:09:10.356Z,56.47
2019-01-23T12:11:58.307Z,57.30
2019-01-23T12:14:45.818Z,56.92
2019-01-23T12:17:33.142Z,56.89
2019-01-23T12:20:21.179Z,57.89
2019-01-23T12:23:09.113Z,59.73
2019-01-23T12:25:57.158Z,60.73
2019-01-23T12:28:44.988Z,62.25
2019-01-23T12:31:35.123Z,64.71
2019-01-23T12:34:21.779Z,65.25
2019-01-23T12:37:09.804Z,65.11
2019-01-23T12:39:57.527Z,65.27
2019-01-23T12:42:45.284Z,65.51
2019-01-23T12:45:33.217Z,65.23
2019-01-23T12:48:20.947Z,64.98
2019-01-23T12:51:08.883Z,64.49
2019-01-23T12:53:56.102Z,62.78
2019-01-23T12:56:43.936Z,63.93
2019-01-23T12:59:31.363Z,62.15
2019-01-23T13:02:19.192Z,61.20
2019-01-23T13:05:09.897Z,59.85
2019-01-23T13:07:57.931Z,59.12
2019-01-23T13:10:45.983Z,58.16
2019-01-23T13:13:33.604Z,57.03
2019-01-23T13:16:21.126Z,57.02
2019-01-23T13:19:08.955Z,57.06
2019-01-23T13:21:56.279Z,56.92
2019-01-23T13:24:44.320Z,57.66
2019-01-23T13:27:32.252Z,57.41
2019-01-23T13:30:21.696Z,57.52
2019-01-23T13:33:09.169Z,58.69
2019-01-23T13:35:56.779Z,60.60
2019-01-23T13:38:44.612Z,59.91
2019-01-23T13:41:32.392Z,61.35
2019-01-23T13:44:20.073Z,64.32
2019-01-23T13:47:07.814Z,66.24
2019-01-23T13:49:55.537Z,67.69
2019-01-23T13:52:42.862Z,69.02
2019-01-23T13:55:30.591Z,69.68
2019-01-23T13:58:18.224Z,69.09
2019-01-23T14:01:05.539Z,68.65
2019-01-23T14:03:52.871Z,68.46
2019-01-23T14:06:40.489Z,67.94
2019-01-23T14:09:28.192Z,69.24
2019-01-23T14:12:16.872Z,69.50
2019-01-23T14:15:13.614Z,69.70
2019-01-23T14:18:01.758Z,69.81
2019-01-23T14:20:49.076Z,69.63
2019-01-23T14:23:36.914Z,69.82
2019-01-23T14:26:24.744Z,69.00
2019-01-23T14:29:12.685Z,69.56
2019-01-23T14:32:03.512Z,69.81
2019-01-23T14:34:49.675Z,69.16
2019-01-23T14:37:37.203Z,69.49
2019-01-23T14:40:24.833Z,69.18
2019-01-23T14:43:12.563Z,70.61
2019-01-23T14:46:00.294Z,70.45
2019-01-23T14:48:47.922Z,70.43
2019-01-23T14:51:35.144Z,69.64
2019-01-23T14:54:23.077Z,70.70
2019-01-23T14:57:10.194Z,71.91
2019-01-23T14:59:57.617Z,72.38
2019-01-23T15:02:45.247Z,73.15
2019-01-23T15:05:33.082Z,72.49
2019-01-23T15:08:20.402Z,72.97
2019-01-23T15:11:08.238Z,72.72
2019-01-23T15:13:55.762Z,73.07
2019-01-23T15:16:43.594Z,73.60
2019-01-23T15:19:31.221Z,72.32
2019-01-23T15:22:18.339Z,72.01
2019-01-23T15:25:07.706Z,72.52
2019-01-23T15:27:55.541Z,72.34
2019-01-23T15:30:43.174Z,72.85
2019-01-23T15:33:30.804Z,73.37
2019-01-23T15:36:18.325Z,73.48
2019-01-23T15:39:07.795Z,73.77
2019-01-23T15:41:55.427Z,74.23
2019-01-23T15:44:43.054Z,74.33
2019-01-23T15:47:30.992Z,73.88
2019-01-23T15:50:26.912Z,74.81
2019-01-23T15:53:14.850Z,74.36
2019-01-23T15:56:03.092Z,74.66
2019-01-23T15:58:50.827Z,75.07
2019-01-23T16:01:38.042Z,75.78
2019-01-23T16:04:25.774Z,76.41
2019-01-23T16:07:13.506Z,76.35
2019-01-23T16:10:02.374Z,77.11
2019-01-23T16:12:50.093Z,77.18
2019-01-23T16:15:37.417Z,77.15
2019-01-23T16:18:25.349Z,77.67
2019-01-23T16:21:13.186Z,77.28
2019-01-23T16:24:00.712Z,77.04
2019-01-23T16:26:48.920Z,76.78
2019-01-23T16:29:36.794Z,76.18
2019-01-23T16:32:24.213Z,76.16
2019-01-23T16:35:11.595Z,76.45
2019-01-23T16:37:59.496Z,77.06
2019-01-23T16:40:47.202Z,76.68
2019-01-23T16:43:34.933Z,76.89
2019-01-23T16:46:22.558Z,75.87
2019-01-23T16:49:10.396Z,75.74
2019-01-23T16:51:57.919Z,76.43
2019-01-23T16:54:45.140Z,75.15
2019-01-23T16:57:33.894Z,74.88
2019-01-23T17:00:24.071Z,74.84
2019-01-23T17:03:11.927Z,75.42
2019-01-23T17:05:59.747Z,75.47
2019-01-23T17:08:47.172Z,75.42
2019-01-23T17:11:35.006Z,75.65
2019-01-23T17:14:22.546Z,75.43
2019-01-23T17:17:10.572Z,75.48
2019-01-23T17:19:59.244Z,76.38
2019-01-23T17:22:47.157Z,75.63
2019-01-23T17:25:34.898Z,76.42
2019-01-23T17:28:22.214Z,75.10
2019-01-23T17:31:09.736Z,75.19
2019-01-23T17:33:57.261Z,74.04
2019-01-23T17:36:44.482Z,73.93
2019-01-23T17:39:32.111Z,74.48
2019-01-23T17:42:20.046Z,74.35
2019-01-23T17:45:10.794Z,73.86
2019-01-23T17:47:58.673Z,73.96
2019-01-23T17:50:46.314Z,74.37
2019-01-23T17:53:34.048Z,73.92
2019-01-23T17:56:21.776Z,74.44
2019-01-23T17:59:09.508Z,74.12
2019-01-23T18:01:57.438Z,73.68
2019-01-23T18:04:45.479Z,73.35
2019-01-23T18:07:32.902Z,72.40
2019-01-23T18:10:20.533Z,72.02
2019-01-23T18:13:08.057Z,71.81
2019-01-23T18:15:55.788Z,71.71
2019-01-23T18:18:43.017Z,71.84
2019-01-23T18:21:48.006Z,71.77
2019-01-23T18:24:48.757Z,72.48
2019-01-23T18:27:37.637Z,72.49
2019-01-23T18:30:41.341Z,72.20
2019-01-23T18:33:35.105Z,72.08
2019-01-23T18:36:43.633Z,71.33
2019-01-23T18:39:39.969Z,70.63
2019-01-23T18:42:54.525Z,71.88
2019-01-23T18:45:44.918Z,70.35
2019-01-23T18:49:01.013Z,67.38
2019-01-23T18:51:51.266Z,65.27
2019-01-23T18:54:39.039Z,64.18
2019-01-23T18:57:31.957Z,63.84
2019-01-23T19:00:22.116Z,63.16
2019-01-23T19:03:09.910Z,62.62
2019-01-23T19:05:57.641Z,62.53
2019-01-23T19:08:45.588Z,62.44
2019-01-23T19:11:33.206Z,62.50
2019-01-23T19:14:24.401Z,62.42
2019-01-23T19:17:09.691Z,62.25
2019-01-23T19:19:57.730Z,62.43
2019-01-23T19:22:46.690Z,62.43
2019-01-23T19:25:34.336Z,63.53
2019-01-23T19:28:22.772Z,63.09
2019-01-23T19:31:10.702Z,62.61
2019-01-23T19:33:58.228Z,62.20
2019-01-23T19:36:46.086Z,61.82
2019-01-23T19:39:33.694Z,62.02
2019-01-23T19:42:21.624Z,61.95
2019-01-23T19:45:17.755Z,62.05
2019-01-23T19:48:05.556Z,63.09
2019-01-23T19:50:53.011Z,62.90
2019-01-23T19:53:40.434Z,65.34
2019-01-23T19:56:28.371Z,66.73
2019-01-23T19:59:16.099Z,70.51
2019-01-23T20:02:03.730Z,69.95
2019-01-23T20:04:51.667Z,70.47
2019-01-23T20:07:38.887Z,72.05
2019-01-23T20:10:27.044Z,73.78
2019-01-23T20:13:14.654Z,74.06
2019-01-23T20:16:02.591Z,75.01
2019-01-23T20:18:50.429Z,76.17
2019-01-23T20:21:38.156Z,75.67
2019-01-23T20:24:25.692Z,75.66
2019-01-23T20:27:13.373Z,77.25
2019-01-23T20:30:01.145Z,78.16
2019-01-23T20:32:49.952Z,78.02
2019-01-23T20:35:37.732Z,78.78
2019-01-23T20:38:25.565Z,77.82
2019-01-23T20:41:13.503Z,78.17
2019-01-23T20:44:01.029Z,75.94
2019-01-23T20:46:48.870Z,72.79
2019-01-23T20:49:36.291Z,71.26
2019-01-23T20:52:24.020Z,70.43
2019-01-23T20:55:11.551Z,73.84
2019-01-23T20:57:59.479Z,76.05
2019-01-23T21:00:47.314Z,76.55
2019-01-23T21:03:35.330Z,76.87
2019-01-23T21:06:22.984Z,77.36
2019-01-23T21:09:11.251Z,76.96
2019-01-23T21:11:58.955Z,76.71
2019-01-23T21:14:46.276Z,76.71
2019-01-23T21:17:33.805Z,77.10
2019-01-23T21:20:21.639Z,76.29
2019-01-23T21:23:09.260Z,76.43
2019-01-23T21:25:56.788Z,76.62
2019-01-23T21:28:44.316Z,77.01
2019-01-23T21:31:32.146Z,77.45
2019-01-23T21:34:19.776Z,77.95
2019-01-23T21:37:07.710Z,78.16
2019-01-23T21:39:55.133Z,78.04
2019-01-23T21:42:42.969Z,77.93
2019-01-23T21:45:31.214Z,77.82
2019-01-23T21:48:18.600Z,78.74
2019-01-23T21:51:07.316Z,77.83
2019-01-23T21:53:55.025Z,78.13
2019-01-23T21:56:42.857Z,77.81
2019-01-23T21:59:30.591Z,78.04
2019-01-23T22:02:18.109Z,78.60
2019-01-23T22:05:08.095Z,78.18
2019-01-23T22:07:55.928Z,77.84
2019-01-23T22:10:43.557Z,78.06
2019-01-23T22:13:31.084Z,77.79
2019-01-23T22:16:18.817Z,77.83
2019-01-23T22:19:06.860Z,76.48
2019-01-23T22:21:54.690Z,76.61
2019-01-23T22:24:43.028Z,76.59
2019-01-23T22:27:30.865Z,77.13
2019-01-23T22:30:30.046Z,77.72
2019-01-23T22:33:17.595Z,78.21
2019-01-23T22:36:05.938Z,77.49
2019-01-23T22:38:53.770Z,77.69
2019-01-23T22:41:41.603Z,78.26
2019-01-23T22:44:29.138Z,78.10
2019-01-23T22:47:16.654Z,77.77
2019-01-23T22:50:11.044Z,77.50
2019-01-23T22:52:58.753Z,74.23
2019-01-23T22:55:46.503Z,72.21
2019-01-23T22:58:34.133Z,71.59
2019-01-23T23:01:22.644Z,72.81
2019-01-23T23:04:10.109Z,74.04
2019-01-23T23:06:57.329Z,73.47
2019-01-23T23:09:44.854Z,75.08
2019-01-23T23:12:32.380Z,75.95
2019-01-23T23:15:20.553Z,76.43
2019-01-23T23:18:08.365Z,77.03
2019-01-23T23:20:55.882Z,78.18
2019-01-23T23:23:43.406Z,78.50
2019-01-23T23:26:30.731Z,78.42
2019-01-23T23:29:18.470Z,79.09
2019-01-23T23:32:06.394Z,78.12
2019-01-23T23:34:53.669Z,74.75
2019-01-23T23:37:41.550Z,73.48
2019-01-23T23:40:29.074Z,74.21
2019-01-23T23:43:16.952Z,75.69
2019-01-23T23:46:05.054Z,77.85
2019-01-23T23:48:52.679Z,77.98
2019-01-23T23:51:40.308Z,76.09
2019-01-23T23:54:28.144Z,77.55
2019-01-23T23:57:15.871Z,78.28
